createdAt,value
2018-02-09T00:00:55.340Z,22.02
2018-02-09T00:03:22.809Z,21.20
2018-02-09T00:05:50.563Z,21.23
2018-02-09T00:08:18.249Z,21.95
2018-02-09T00:10:45.790Z,21.08
2018-02-09T00:13:13.275Z,21.67
2018-02-09T00:15:41.024Z,23.27
2018-02-09T00:18:08.488Z,22.00
2018-02-09T00:20:36.175Z,20.92
2018-02-09T00:23:03.773Z,23.75
2018-02-09T00:25:31.459Z,20.40
2018-02-09T00:27:59.223Z,21.62
2018-02-09T00:30:26.911Z,19.83
2018-02-09T00:32:54.400Z,18.60
2018-02-09T00:35:21.864Z,20.98
2018-02-09T00:37:49.323Z,23.35
2018-02-09T00:40:16.796Z,19.65
2018-02-09T00:42:44.279Z,21.73
2018-02-09T00:45:11.751Z,22.87
2018-02-09T00:47:39.499Z,21.85
2018-02-09T00:50:07.176Z,23.50
2018-02-09T00:52:34.649Z,23.20
2018-02-09T00:55:02.108Z,23.38
2018-02-09T00:57:29.596Z,20.92
2018-02-09T00:59:57.059Z,20.52
2018-02-09T01:02:24.524Z,21.73
2018-02-09T01:04:51.991Z,20.75
2018-02-09T01:07:19.784Z,22.17
2018-02-09T01:09:47.484Z,19.77
2018-02-09T01:12:15.152Z,22.13
2018-02-09T01:14:42.764Z,25.33
2018-02-09T01:17:10.248Z,22.23
2018-02-09T01:19:37.712Z,21.30
2018-02-09T01:22:05.175Z,22.75
2018-02-09T01:24:32.908Z,21.62
2018-02-09T01:27:00.364Z,21.87
2018-02-09T01:29:28.123Z,22.70
2018-02-09T01:31:55.812Z,21.98
2018-02-09T01:34:23.415Z,23.95
2018-02-09T01:36:50.880Z,20.92
2018-02-09T01:39:18.355Z,22.35
2018-02-09T01:41:45.836Z,22.62
2018-02-09T01:44:13.302Z,23.50
2018-02-09T01:46:41.563Z,21.30
2018-02-09T01:49:09.183Z,22.23
2018-02-09T01:51:36.784Z,20.77
2018-02-09T01:54:04.248Z,22.05
2018-02-09T01:56:32.004Z,23.02
2018-02-09T01:58:59.507Z,21.90
2018-02-09T02:01:27.143Z,20.45
2018-02-09T02:03:54.676Z,20.90
2018-02-09T02:06:22.148Z,22.98
2018-02-09T02:08:49.908Z,21.75
2018-02-09T02:11:17.368Z,24.20
2018-02-09T02:13:45.127Z,23.67
2018-02-09T02:16:12.707Z,20.92
2018-02-09T02:18:40.940Z,22.15
2018-02-09T02:21:08.424Z,21.65
2018-02-09T02:23:36.196Z,23.38
2018-02-09T02:26:03.653Z,21.65
2018-02-09T02:28:31.416Z,21.48
2018-02-09T02:30:58.880Z,22.75
2018-02-09T02:33:26.340Z,22.10
2018-02-09T02:35:54.096Z,20.33
2018-02-09T02:38:21.771Z,21.35
2018-02-09T02:40:49.323Z,22.13
2018-02-09T02:43:17.088Z,21.40
2018-02-09T02:45:44.860Z,21.23
2018-02-09T02:48:12.328Z,22.48
2018-02-09T02:50:39.987Z,21.15
2018-02-09T02:53:07.533Z,20.75
2018-02-09T02:55:35.291Z,20.33
2018-02-09T02:58:03.064Z,20.55
2018-02-09T03:00:30.548Z,21.02
2018-02-09T03:02:58.285Z,21.05
2018-02-09T03:05:25.743Z,22.25
2018-02-09T03:07:53.511Z,21.10
2018-02-09T03:10:21.275Z,20.37
2018-02-09T03:12:48.735Z,24.15
2018-02-09T03:15:16.203Z,21.17
2018-02-09T03:17:43.667Z,21.40
2018-02-09T03:20:11.335Z,22.87
2018-02-09T03:22:38.787Z,19.35
2018-02-09T03:25:06.332Z,22.08
2018-02-09T03:27:33.988Z,21.95
2018-02-09T03:30:01.457Z,22.87
2018-02-09T03:32:29.008Z,23.62
2018-02-09T03:34:56.687Z,21.75
2018-02-09T03:37:24.231Z,23.38
2018-02-09T03:39:51.695Z,20.95
2018-02-09T03:42:19.156Z,24.27
2018-02-09T03:44:46.917Z,21.80
2018-02-09T03:47:14.432Z,21.05
2018-02-09T03:49:41.903Z,20.02
2018-02-09T03:52:09.587Z,23.98
2018-02-09T03:54:37.359Z,22.20
2018-02-09T03:57:05.120Z,21.92
2018-02-09T03:59:32.888Z,23.52
2018-02-09T04:02:00.572Z,25.48
2018-02-09T04:04:28.112Z,22.42
2018-02-09T04:06:55.579Z,23.90
2018-02-09T04:09:23.068Z,22.87
2018-02-09T04:11:50.703Z,22.95
2018-02-09T04:14:18.167Z,22.08
2018-02-09T04:16:45.699Z,23.75
2018-02-09T04:19:13.195Z,23.62
2018-02-09T04:21:41.423Z,22.58
2018-02-09T04:24:09.839Z,23.27
2018-02-09T04:26:37.389Z,22.62
2018-02-09T04:29:05.143Z,23.60
2018-02-09T04:31:32.914Z,21.60
2018-02-09T04:34:00.375Z,23.85
2018-02-09T04:36:28.135Z,23.38
2018-02-09T04:38:55.595Z,23.65
2018-02-09T04:41:23.969Z,24.12
2018-02-09T04:43:51.735Z,23.48
2018-02-09T04:46:19.500Z,22.40
2018-02-09T04:48:47.180Z,22.75
2018-02-09T04:51:14.653Z,24.35
2018-02-09T04:53:42.172Z,22.80
2018-02-09T04:56:09.655Z,22.85
2018-02-09T04:58:37.319Z,24.92
2018-02-09T05:01:04.859Z,21.10
2018-02-09T05:03:32.343Z,21.30
2018-02-09T05:06:00.094Z,24.08
2018-02-09T05:08:27.551Z,22.77
2018-02-09T05:10:55.308Z,23.52
2018-02-09T05:13:23.072Z,23.85
2018-02-09T05:15:50.560Z,22.40
2018-02-09T05:18:18.029Z,19.90
2018-02-09T05:20:45.564Z,20.83
2018-02-09T05:23:13.806Z,21.23
2018-02-09T05:25:41.271Z,21.48
2018-02-09T05:28:08.739Z,23.38
2018-02-09T05:30:36.415Z,22.95
2018-02-09T05:33:03.964Z,24.33
2018-02-09T05:35:31.651Z,33.00
2018-02-09T05:37:59.236Z,24.40
2018-02-09T05:40:26.951Z,24.73
2018-02-09T05:42:54.412Z,25.92
2018-02-09T05:45:21.885Z,24.30
2018-02-09T05:47:49.631Z,23.12
2018-02-09T05:50:17.395Z,22.40
2018-02-09T05:52:44.859Z,21.62
2018-02-09T05:55:12.395Z,22.50
2018-02-09T05:57:39.884Z,23.65
2018-02-09T06:00:08.112Z,21.50
2018-02-09T06:02:35.611Z,21.92
2018-02-09T06:05:03.137Z,22.73
2018-02-09T06:07:30.743Z,18.48
2018-02-09T06:09:58.208Z,20.15
2018-02-09T06:12:25.747Z,20.40
2018-02-09T06:14:53.208Z,22.40
2018-02-09T06:17:20.973Z,19.30
2018-02-09T06:19:48.439Z,22.65
2018-02-09T06:22:16.193Z,21.73
2018-02-09T06:24:43.655Z,21.92
2018-02-09T06:27:11.128Z,23.12
2018-02-09T06:29:38.818Z,21.62
2018-02-09T06:32:06.300Z,20.10
2018-02-09T06:34:33.764Z,20.73
2018-02-09T06:37:01.232Z,21.50
2018-02-09T06:39:28.723Z,21.92
2018-02-09T06:41:56.264Z,22.30
2018-02-09T06:44:23.841Z,22.45
2018-02-09T06:46:51.385Z,23.20
2018-02-09T06:49:19.152Z,21.60
2018-02-09T06:51:46.607Z,20.25
2018-02-09T06:54:14.372Z,24.17
2018-02-09T06:56:41.864Z,21.83
2018-02-09T06:59:09.591Z,22.67
2018-02-09T07:01:37.052Z,22.45
2018-02-09T07:04:04.820Z,21.10
2018-02-09T07:06:32.580Z,22.30
2018-02-09T07:09:00.046Z,21.00
2018-02-09T07:11:27.760Z,22.83
2018-02-09T07:13:55.229Z,22.20
2018-02-09T07:16:22.691Z,22.10
2018-02-09T07:18:50.167Z,24.10
2018-02-09T07:21:17.947Z,22.45
2018-02-09T07:23:45.475Z,23.58
2018-02-09T07:26:13.019Z,22.58
2018-02-09T07:28:40.535Z,22.42
2018-02-09T07:31:08.085Z,22.27
2018-02-09T07:33:35.804Z,24.52
2018-02-09T07:36:03.313Z,21.87
2018-02-09T07:38:31.376Z,22.83
2018-02-09T07:40:59.148Z,23.35
2018-02-09T07:43:26.667Z,22.75
2018-02-09T07:45:54.108Z,21.70
2018-02-09T07:48:21.824Z,23.05
2018-02-09T07:50:49.292Z,20.98
2018-02-09T07:53:17.017Z,19.48
2018-02-09T07:55:44.475Z,23.05
2018-02-09T07:58:12.014Z,21.67
2018-02-09T08:00:39.727Z,21.05
2018-02-09T08:03:07.200Z,20.42
2018-02-09T08:05:34.668Z,21.90
2018-02-09T08:08:02.131Z,21.37
2018-02-09T08:10:29.864Z,22.73
2018-02-09T08:12:57.628Z,22.37
2018-02-09T08:15:25.400Z,22.52
2018-02-09T08:17:53.084Z,23.58
2018-02-09T08:20:20.552Z,23.27
2018-02-09T08:22:48.077Z,21.45
2018-02-09T08:25:15.539Z,22.77
2018-02-09T08:27:43.008Z,22.25
2018-02-09T08:30:10.756Z,24.00
2018-02-09T08:32:38.436Z,23.10
2018-02-09T08:35:05.920Z,23.50
2018-02-09T08:37:33.436Z,22.87
2018-02-09T08:40:00.899Z,20.40
2018-02-09T08:42:28.663Z,20.00
2018-02-09T08:44:56.431Z,18.83
2018-02-09T08:47:24.195Z,24.83
2018-02-09T08:49:51.656Z,22.67
2018-02-09T08:52:19.236Z,21.45
2018-02-09T08:54:47.472Z,21.67
2018-02-09T08:57:14.948Z,24.52
2018-02-09T08:59:42.711Z,20.83
2018-02-09T09:02:10.409Z,21.92
2018-02-09T09:04:37.872Z,21.98
2018-02-09T09:07:05.340Z,23.77
2018-02-09T09:09:33.155Z,21.10
2018-02-09T09:12:00.943Z,22.48
2018-02-09T09:14:28.497Z,19.83
2018-02-09T09:16:57.064Z,23.77
2018-02-09T09:19:24.890Z,20.90
2018-02-09T09:21:52.503Z,25.02
2018-02-09T09:24:20.052Z,23.12
2018-02-09T09:26:47.816Z,22.15
2018-02-09T09:29:15.580Z,20.15
2018-02-09T09:31:43.048Z,21.52
2018-02-09T09:34:10.518Z,22.52
2018-02-09T09:36:38.860Z,21.37
2018-02-09T09:39:06.523Z,22.85
2018-02-09T09:41:33.984Z,23.90
2018-02-09T09:44:01.443Z,22.45
2018-02-09T09:46:29.013Z,20.77
2018-02-09T09:48:56.688Z,23.23
2018-02-09T09:51:24.208Z,24.50
2018-02-09T09:53:51.695Z,23.55
2018-02-09T09:56:19.176Z,23.00
2018-02-09T09:58:46.630Z,22.25
2018-02-09T10:01:19.836Z,25.40
2018-02-09T10:03:47.365Z,26.30
2018-02-09T10:06:15.128Z,23.67
2018-02-09T10:08:42.591Z,24.12
2018-02-09T10:11:10.357Z,22.15
2018-02-09T10:13:37.893Z,25.12
2018-02-09T10:16:05.358Z,24.55
2018-02-09T10:18:33.034Z,24.15
2018-02-09T10:21:00.795Z,23.85
2018-02-09T10:23:28.560Z,21.50
2018-02-09T10:25:56.019Z,24.75
2018-02-09T10:28:23.488Z,23.48
2018-02-09T10:30:51.252Z,25.05
2018-02-09T10:33:18.844Z,24.48
2018-02-09T10:35:46.465Z,26.62
2018-02-09T10:38:13.938Z,24.83
2018-02-09T10:40:41.700Z,25.88
2018-02-09T10:43:09.456Z,27.45
2018-02-09T10:45:37.241Z,24.73
2018-02-09T10:48:04.871Z,24.10
2018-02-09T10:50:32.352Z,21.60
2018-02-09T10:52:59.812Z,23.48
2018-02-09T10:55:27.284Z,25.08
2018-02-09T10:57:55.735Z,26.20
2018-02-09T11:03:13.932Z,25.02
2018-02-09T11:05:41.392Z,28.38
2018-02-09T11:08:08.861Z,26.60
2018-02-09T11:10:36.324Z,25.52
2018-02-09T11:13:09.488Z,27.10
2018-02-09T11:15:37.723Z,24.37
2018-02-09T11:18:05.299Z,27.10
2018-02-09T11:20:32.963Z,28.40
2018-02-09T11:23:00.424Z,27.90
2018-02-09T11:25:28.139Z,28.20
2018-02-09T11:27:55.600Z,26.37
2018-02-09T11:30:23.111Z,27.05
2018-02-09T11:32:50.564Z,27.42
2018-02-09T11:35:18.255Z,24.48
2018-02-09T11:37:45.742Z,24.90
2018-02-09T11:40:13.205Z,27.05
2018-02-09T11:42:40.683Z,26.67
2018-02-09T11:45:08.163Z,26.45
2018-02-09T11:47:35.924Z,26.92
2018-02-09T11:50:03.389Z,26.83
2018-02-09T11:52:30.848Z,27.85
2018-02-09T11:54:58.599Z,27.33
2018-02-09T11:57:26.063Z,25.25
2018-02-09T11:59:53.824Z,26.30
2018-02-09T12:02:21.291Z,27.70
2018-02-09T12:04:48.751Z,27.98
2018-02-09T12:07:16.508Z,27.80
2018-02-09T12:09:43.968Z,26.77
2018-02-09T12:12:11.732Z,27.37
2018-02-09T12:14:39.202Z,27.30
2018-02-09T12:17:06.889Z,28.45
2018-02-09T12:19:34.343Z,28.65
2018-02-09T12:22:01.803Z,29.02
2018-02-09T12:24:29.272Z,31.23
2018-02-09T12:26:56.936Z,28.58
2018-02-09T12:29:24.552Z,28.38
2018-02-09T12:31:52.076Z,28.33
2018-02-09T12:34:19.772Z,28.62
2018-02-09T12:36:47.540Z,30.88
2018-02-09T12:39:15.304Z,28.12
2018-02-09T12:41:42.763Z,25.70
2018-02-09T12:44:10.528Z,28.25
2018-02-09T12:46:38.211Z,26.25
2018-02-09T12:49:05.671Z,25.10
2018-02-09T12:51:33.207Z,25.55
2018-02-09T12:54:00.972Z,27.90
2018-02-09T12:56:28.746Z,27.67
2018-02-09T12:58:56.506Z,26.10
2018-02-09T13:01:23.964Z,28.15
2018-02-09T13:03:51.425Z,27.30
2018-02-09T13:06:19.188Z,25.77
2018-02-09T13:08:46.880Z,30.23
2018-02-09T13:11:14.408Z,28.23
2018-02-09T13:13:42.088Z,26.08
2018-02-09T13:16:09.628Z,29.33
2018-02-09T13:18:49.067Z,27.35
2018-02-09T13:21:16.537Z,28.83
2018-02-09T13:23:55.964Z,32.08
2018-02-09T13:26:23.440Z,27.02
2018-02-09T13:28:58.727Z,30.88
2018-02-09T13:31:26.479Z,30.30
2018-02-09T13:33:54.095Z,26.05
2018-02-09T13:36:33.224Z,30.30
2018-02-09T13:39:00.738Z,29.15
2018-02-09T13:41:28.159Z,26.83
2018-02-09T13:43:55.748Z,28.83
2018-02-09T13:46:23.271Z,28.45
2018-02-09T13:48:50.727Z,29.87
2018-02-09T13:51:18.275Z,31.00
2018-02-09T13:53:45.736Z,26.87
2018-02-09T13:56:13.232Z,29.35
2018-02-09T13:58:40.868Z,29.95
2018-02-09T14:01:08.323Z,30.52
2018-02-09T14:03:35.876Z,30.40
2018-02-09T14:06:03.332Z,27.80
2018-02-09T14:08:30.839Z,31.02
2018-02-09T14:10:58.292Z,27.02
2018-02-09T14:13:25.858Z,28.95
2018-02-09T14:15:53.623Z,28.20
2018-02-09T14:18:21.144Z,28.17
2018-02-09T14:20:48.609Z,29.15
2018-02-09T14:23:16.071Z,30.17
2018-02-09T14:25:43.529Z,28.35
2018-02-09T14:28:10.997Z,27.55
2018-02-09T14:30:38.456Z,27.52
2018-02-09T14:33:05.983Z,30.15
2018-02-09T14:35:33.743Z,24.98
2018-02-09T14:38:01.255Z,25.40
2018-02-09T14:40:28.817Z,25.15
2018-02-09T14:42:56.424Z,26.77
2018-02-09T14:45:24.192Z,23.35
2018-02-09T14:47:51.648Z,27.50
2018-02-09T14:50:19.147Z,25.15
2018-02-09T14:52:46.784Z,25.12
2018-02-09T14:55:14.332Z,24.98
2018-02-09T14:57:41.816Z,28.50
2018-02-09T15:00:09.560Z,24.87
2018-02-09T15:02:37.324Z,22.40
2018-02-09T15:05:04.808Z,26.20
2018-02-09T15:07:32.544Z,26.33
2018-02-09T15:10:00.006Z,25.17
2018-02-09T15:12:27.472Z,26.00
2018-02-09T15:14:54.952Z,24.87
2018-02-09T15:17:22.685Z,24.90
2018-02-09T15:19:50.444Z,26.25
2018-02-09T15:22:17.922Z,25.45
2018-02-09T15:24:45.673Z,25.00
2018-02-09T15:27:13.127Z,28.20
2018-02-09T15:29:40.588Z,26.40
2018-02-09T15:32:08.300Z,26.70
2018-02-09T15:34:35.808Z,26.27
2018-02-09T15:37:03.276Z,26.25
2018-02-09T15:39:31.031Z,26.50
2018-02-09T15:41:58.707Z,25.55
2018-02-09T15:44:26.565Z,26.67
2018-02-09T15:46:54.024Z,26.08
2018-02-09T15:49:21.480Z,25.35
2018-02-09T15:51:49.163Z,23.98
2018-02-09T15:54:16.629Z,28.60
2018-02-09T15:56:44.115Z,25.25
2018-02-09T15:59:11.580Z,25.75
2018-02-09T16:01:39.035Z,22.95
2018-02-09T16:04:06.503Z,23.10
2018-02-09T16:06:33.991Z,23.02
2018-02-09T16:09:01.668Z,24.63
2018-02-09T16:11:29.211Z,22.98
2018-02-09T16:13:56.685Z,23.20
2018-02-09T16:16:24.431Z,21.40
2018-02-09T16:18:52.199Z,21.27
2018-02-09T16:21:19.660Z,22.48
2018-02-09T16:23:47.115Z,23.73
2018-02-09T16:26:14.884Z,22.40
2018-02-09T16:28:42.343Z,22.80
2018-02-09T16:31:10.104Z,23.60
2018-02-09T16:33:37.575Z,22.00
2018-02-09T16:36:05.247Z,24.17
2018-02-09T16:38:32.733Z,20.95
2018-02-09T16:41:00.192Z,22.08
2018-02-09T16:43:27.653Z,19.80
2018-02-09T16:45:55.119Z,21.50
2018-02-09T16:48:22.613Z,19.87
2018-02-09T16:50:50.087Z,20.20
2018-02-09T16:53:17.556Z,18.83
2018-02-09T16:55:45.300Z,21.02
2018-02-09T16:58:12.983Z,20.88
2018-02-09T17:00:40.524Z,20.23
2018-02-09T17:03:08.284Z,20.05
2018-02-09T17:05:35.748Z,20.70
2018-02-09T17:08:03.515Z,20.73
2018-02-09T17:10:31.273Z,20.37
2018-02-09T17:12:58.733Z,21.70
2018-02-09T17:15:26.498Z,16.77
2018-02-09T17:17:53.957Z,21.20
2018-02-09T17:20:21.546Z,20.20
2018-02-09T17:22:49.088Z,18.52
2018-02-09T17:25:16.548Z,17.37
2018-02-09T17:27:44.223Z,19.50
2018-02-09T17:30:12.446Z,19.05
2018-02-09T17:32:39.931Z,18.00
2018-02-09T17:35:07.632Z,38.65
2018-02-09T17:37:35.157Z,31.42
2018-02-09T17:40:02.830Z,25.55
2018-02-09T17:42:30.291Z,19.70
2018-02-09T17:44:58.756Z,22.73
2018-02-09T17:47:26.440Z,22.17
2018-02-09T17:49:54.808Z,18.42
2018-02-09T17:52:22.280Z,19.08
2018-02-09T17:54:49.821Z,25.50
2018-02-09T17:57:17.538Z,17.25
2018-02-09T17:59:45.294Z,21.90
2018-02-09T18:02:12.809Z,18.17
2018-02-09T18:04:40.572Z,17.08
2018-02-09T18:07:08.335Z,17.40
2018-02-09T18:09:36.100Z,18.45
2018-02-09T18:12:03.581Z,16.73
2018-02-09T18:14:31.335Z,14.80
2018-02-09T18:16:58.861Z,15.80
2018-02-09T18:19:26.396Z,15.88
2018-02-09T18:21:54.008Z,15.23
2018-02-09T18:24:21.764Z,14.52
2018-02-09T18:26:49.328Z,16.58
2018-02-09T18:29:16.789Z,18.10
2018-02-09T18:31:44.244Z,15.85
2018-02-09T18:34:11.908Z,14.35
2018-02-09T18:36:39.368Z,11.85
2018-02-09T18:39:07.131Z,13.50
2018-02-09T18:41:34.896Z,14.45
2018-02-09T18:44:02.356Z,12.45
2018-02-09T18:46:30.120Z,12.07
2018-02-09T18:48:57.581Z,13.30
2018-02-09T18:51:25.344Z,14.07
2018-02-09T18:53:52.825Z,14.65
2018-02-09T18:56:20.568Z,14.40
2018-02-09T18:58:48.029Z,14.52
2018-02-09T19:01:15.801Z,13.43
2018-02-09T19:03:43.556Z,12.50
2018-02-09T19:06:11.315Z,13.73
2018-02-09T19:08:38.780Z,13.05
2018-02-09T19:11:06.344Z,12.98
2018-02-09T19:13:34.004Z,13.15
2018-02-09T19:16:01.680Z,11.38
2018-02-09T19:18:29.223Z,13.20
2018-02-09T19:20:56.687Z,15.20
2018-02-09T19:23:24.159Z,14.40
2018-02-09T19:25:51.799Z,15.60
2018-02-09T19:28:20.192Z,28.67
2018-02-09T19:30:47.652Z,15.27
2018-02-09T19:33:15.120Z,14.93
2018-02-09T19:35:42.651Z,13.13
2018-02-09T19:38:10.140Z,12.55
2018-02-09T19:40:37.596Z,13.95
2018-02-09T19:43:05.339Z,13.68
2018-02-09T19:45:33.149Z,12.35
2018-02-09T19:48:00.567Z,11.43
2018-02-09T19:50:28.276Z,11.65
2018-02-09T19:52:55.780Z,13.32
2018-02-09T19:55:23.240Z,13.68
2018-02-09T19:57:50.832Z,12.88
2018-02-09T20:00:19.092Z,14.75
2018-02-09T20:02:46.663Z,13.27
2018-02-09T20:05:15.223Z,13.43
2018-02-09T20:07:42.983Z,15.10
2018-02-09T20:10:10.499Z,13.18
2018-02-09T20:12:38.212Z,12.55
2018-02-09T20:15:05.980Z,12.63
2018-02-09T20:17:33.751Z,12.02
2018-02-09T20:20:01.515Z,12.02
2018-02-09T20:22:29.276Z,12.30
2018-02-09T20:24:56.944Z,12.32
2018-02-09T20:27:24.497Z,12.20
2018-02-09T20:29:51.957Z,12.73
2018-02-09T20:32:19.722Z,11.85
2018-02-09T20:34:47.487Z,11.77
2018-02-09T20:37:14.973Z,13.43
2018-02-09T20:39:42.419Z,13.10
2018-02-09T20:42:09.876Z,11.90
2018-02-09T20:44:37.627Z,11.18
2018-02-09T20:47:05.388Z,12.00
2018-02-09T20:49:32.856Z,12.60
2018-02-09T20:52:00.320Z,11.70
2018-02-09T20:54:27.787Z,14.77
2018-02-09T20:56:55.243Z,10.88
2018-02-09T20:59:22.981Z,12.07
2018-02-09T21:01:50.447Z,11.65
2018-02-09T21:04:18.140Z,12.70
2018-02-09T21:06:45.668Z,11.93
2018-02-09T21:09:13.249Z,12.43
2018-02-09T21:11:41.503Z,12.27
2018-02-09T21:14:09.284Z,12.10
2018-02-09T21:16:37.340Z,14.30
2018-02-09T21:19:05.103Z,10.77
2018-02-09T21:21:32.871Z,12.48
2018-02-09T21:24:00.631Z,11.57
2018-02-09T21:26:28.091Z,11.80
2018-02-09T21:28:55.544Z,13.02
2018-02-09T21:31:23.024Z,11.15
2018-02-09T21:33:50.588Z,10.90
2018-02-09T21:36:18.239Z,11.98
2018-02-09T21:38:45.997Z,12.27
2018-02-09T21:41:13.460Z,10.90
2018-02-09T21:43:41.220Z,11.95
2018-02-09T21:46:08.751Z,12.13
2018-02-09T21:48:36.360Z,16.55
2018-02-09T21:51:03.824Z,11.38
2018-02-09T21:53:31.664Z,12.70
2018-02-09T21:55:59.200Z,13.07
2018-02-09T21:58:26.888Z,11.48
2018-02-09T22:00:54.511Z,10.77
2018-02-09T22:03:22.109Z,10.43
2018-02-09T22:05:49.783Z,9.98
2018-02-09T22:08:17.328Z,9.50
2018-02-09T22:10:44.792Z,11.20
2018-02-09T22:13:12.561Z,10.95
2018-02-09T22:15:40.020Z,10.02
2018-02-09T22:18:07.483Z,10.98
2018-02-09T22:20:35.021Z,12.63
2018-02-09T22:23:02.691Z,10.05
2018-02-09T22:25:30.372Z,11.38
2018-02-09T22:27:57.827Z,10.93
2018-02-09T22:30:25.296Z,11.02
2018-02-09T22:32:52.831Z,9.40
2018-02-09T22:35:20.320Z,10.32
2018-02-09T22:37:48.544Z,10.75
2018-02-09T22:40:16.112Z,10.10
2018-02-09T22:42:43.576Z,11.55
2018-02-09T22:45:11.033Z,11.00
2018-02-09T22:47:38.811Z,11.50
2018-02-09T22:50:06.580Z,12.43
2018-02-09T22:52:34.066Z,12.23
2018-02-09T22:55:01.798Z,11.90
2018-02-09T22:57:29.564Z,10.85
2018-02-09T22:59:57.100Z,11.00
2018-02-09T23:02:24.783Z,11.05
2018-02-09T23:04:52.550Z,9.57
2018-02-09T23:07:20.013Z,11.18
2018-02-09T23:09:47.776Z,11.70
2018-02-09T23:12:15.236Z,11.40
2018-02-09T23:14:42.732Z,10.38
2018-02-09T23:17:10.458Z,12.60
2018-02-09T23:19:38.220Z,10.93
2018-02-09T23:22:05.904Z,10.13
2018-02-09T23:24:34.284Z,12.07
2018-02-09T23:27:02.133Z,11.23
2018-02-09T23:29:29.587Z,11.63
2018-02-09T23:31:57.347Z,9.07
2018-02-09T23:34:25.012Z,10.65
2018-02-09T23:36:52.576Z,10.52
2018-02-09T23:39:20.033Z,10.15
2018-02-09T23:41:47.735Z,12.18
2018-02-09T23:44:15.201Z,10.02
2018-02-09T23:46:42.658Z,11.20
2018-02-09T23:49:10.125Z,10.75
2018-02-09T23:51:37.584Z,11.90
2018-02-09T23:54:05.039Z,11.80
2018-02-09T23:56:32.851Z,13.32
2018-02-09T23:59:00.536Z,11.98
